NO-0045 weather

Kalnes Sykehus Heliport
Østfold, Norway

Public forecast

Using degrees Celsius for public forecast. Weather courtesy of forecast.io.

Closest aviation weather report (METAR) to Kalnes Sykehus Heliport

Closest report is Moss Airport, Rygge, 8.1 nm (15.1 km) WNW. Retrieved 2020/07/07 02:50 UTC (12 minutes ago):

ENRY 070250Z AUTO 27006KT 9999NDV NCD 10/03 Q1003

Closest aviation forecast (TAF) to Kalnes Sykehus Heliport

Closest forecast is Moss Airport, Rygge, 8.1 nm (15.1 km) WNW. Retrieved 2020-07-07 00:00 UTC (3 hours ago):

TAF TAF ENRY 062300Z 0700/0724 28008KT 9999 FEW040 BKN080 TEMPO 0710/0713 21010KT TEMPO 0711/0724 SHRA SCT025CB BKN030 PROB40 TEMPO 0712/0717 TS